TFM - Tactical Decision Aid
ID: Runway Winds: CIG/VIS Threshold:

KLGA - New York/La Guardia, NY, US

Updated at: 1245 UTC 15 Jul 2020
Latest TAF at: 1140 UTC 15 Jul 2020

TAF Board

Time1233Z 15/13Z 15/14Z 15/15Z 15/16Z 15/17Z 15/18Z 15/19Z 15/20Z 15/21Z 15/22Z 15/23Z 16/00Z 16/01Z>>
Type OBS PRVL
  [TEMP]  
PRVL
  [TEMP]  
PRVL PRVL PRVL PRVL PRVL PRVL PRVL PRVL PRVL PRVL PRVL
VIS 10 >6 >6 >6 >6 >6 >6 >6 >6 >6 >6 >6 >6 >6
CIG -- 35
  [20]  
35
  [20]  
50 50 250 250 250 -- -- -- -- -- --
Cover SCT BKN
  [BKN]  
BKN
  [BKN]  
BKN BKN BKN BKN BKN SCT SCT SCT SCT SCT SCT
FltCat VFR VFR
  [MVFR]  
VFR
  [MVFR]  
VFR VFR VFR VFR VFR VFR VFR VFR VFR VFR VFR
WX -- --
  [--]  
--
  [--]  
-- -- -- -- -- -- -- -- -- -- --
WDir 50 80
[80]
80
[80]
90 90 100 100 100 130 130 130 130 130 130
WSpd 8 7
  [7]  
7
  [7]  
7 7 9 9 9 10 10 10 10 10 10
WGst -- --
  [--]  
--
  [--]  
-- -- -- -- -- -- -- -- -- -- --

TDA Impact Legend

  None Marginal Slight Moderate High
Visibility (sm) >5 3≤X≤5 1≤X<3 0.5≤X<1 <0.5
Ceiling (100 ft) >30 10≤X≤30 4≤X<10 2≤X<4 <2
Wind Speed (kt) <15 15≤X<25 25≤X<30 ≥30
Wind Gust (kt) <15 15≤X<25 25≤X<35 ≥35
Weather No Wx Reported VCTS -TS,-FZRA TS,FZRA +TS,+FZRA
TAF
KLGA 151140Z 1512/1618 08007KT P6SM SCT020 BKN035 BKN250
  TEMPO 1512/1515 BKN020
  FM151500 09007KT P6SM FEW025 BKN050 BKN250
  FM151700 10009KT P6SM SCT050 BKN250
  FM152000 13010KT P6SM SCT050 SCT250
  FM160200 14007KT P6SM SCT020 SCT050
  FM160600 13005KT P6SM SCT025 BKN040
  FM161600 14009KT P6SM FEW025 SCT030 BKN050


METAR
KLGA 151233Z 05008KT 10SM SCT022 24/18 A3017 RMK AO2 T02440178
KLGA 151151Z 05008KT 10SM BKN021 BKN250 23/18 A3015 RMK AO2 SLP210 T02330178 10239 20222 51008
KLGA 151145Z 05008KT 10SM BKN021 BKN250 23/18 A3015 RMK AO2
KLGA 151051Z 10007KT 10SM FEW011 SCT024 BKN250 23/18 A3014 RMK AO2 SLP206 T02280183
KLGA 151005Z 06006KT 10SM SCT011 BKN017 BKN120 23/19 A3013 RMK AO2 T02280189
KLGA 150951Z 04004KT 10SM FEW016 SCT019 BKN250 22/19 A3013 RMK AO2 SLP202 T02220189
KLGA 150923Z COR 05007KT 10SM SCT018 SCT250 23/19 A3012 RMK AO2 T02280189

Radar Display
Forecast Discussion